Terminal Aerodrome Forecast
Issued by NWS Wilmington, NC

Home | Current Version | Previous Version | Text Only | Print | Product List | Glossary On
Versions: 1 2 3 4 5 6 7 8 9 10 11 12 13 14 15 16
000
FTUS42 KILM 100523
TAFMYR
TAF
KMYR 100523Z 1006/1106 26010G15KT P6SM SCT045 BKN070
     FM100800 26010KT P6SM SCT070
     FM101400 26016G26KT P6SM SCT050 BKN150
     FM110100 25010KT P6SM SKC
      AMD LTD TO CLD VIS AND WIND TIL 101100=

USA.gov is the U.S. government's official web portal to all federal, state and local government web resources and services.